sensor_id;sensor_type;location;lat;lon;timestamp;P1;durP1;ratioP1;P2;durP2;ratioP2
15312;SDS011;7757;52.626;4.746;2023-02-12T00:00:27;5.78;;;1.70;;
15312;SDS011;7757;52.626;4.746;2023-02-12T00:03:13;6.28;;;1.48;;
15312;SDS011;7757;52.626;4.746;2023-02-12T00:05:59;7.18;;;1.60;;
15312;SDS011;7757;52.626;4.746;2023-02-12T00:08:49;6.22;;;1.70;;
15312;SDS011;7757;52.626;4.746;2023-02-12T00:11:35;6.07;;;1.60;;
15312;SDS011;7757;52.626;4.746;2023-02-12T00:14:21;6.43;;;1.65;;
15312;SDS011;7757;52.626;4.746;2023-02-12T00:17:07;6.22;;;1.48;;
15312;SDS011;7757;52.626;4.746;2023-02-12T00:19:53;6.70;;;1.80;;
15312;SDS011;7757;52.626;4.746;2023-02-12T00:22:39;5.22;;;1.40;;
15312;SDS011;7757;52.626;4.746;2023-02-12T00:25:26;5.57;;;1.50;;
15312;SDS011;7757;52.626;4.746;2023-02-12T00:28:13;6.45;;;1.60;;
15312;SDS011;7757;52.626;4.746;2023-02-12T00:31:03;4.70;;;1.45;;
15312;SDS011;7757;52.626;4.746;2023-02-12T00:33:50;5.85;;;1.48;;
15312;SDS011;7757;52.626;4.746;2023-02-12T00:36:37;7.47;;;1.75;;
15312;SDS011;7757;52.626;4.746;2023-02-12T00:39:23;6.05;;;1.60;;
15312;SDS011;7757;52.626;4.746;2023-02-12T00:42:11;4.70;;;1.50;;
15312;SDS011;7757;52.626;4.746;2023-02-12T00:45:00;5.13;;;1.40;;
15312;SDS011;7757;52.626;4.746;2023-02-12T00:47:46;5.85;;;1.60;;
15312;SDS011;7757;52.626;4.746;2023-02-12T00:50:32;5.88;;;1.70;;
15312;SDS011;7757;52.626;4.746;2023-02-12T00:53:18;5.85;;;1.60;;
15312;SDS011;7757;52.626;4.746;2023-02-12T00:56:03;5.18;;;1.45;;
15312;SDS011;7757;52.626;4.746;2023-02-12T00:58:53;5.07;;;1.48;;
15312;SDS011;7757;52.626;4.746;2023-02-12T01:01:38;6.03;;;1.40;;
15312;SDS011;7757;52.626;4.746;2023-02-12T01:04:25;5.72;;;1.50;;
15312;SDS011;7757;52.626;4.746;2023-02-12T01:07:11;7.95;;;1.60;;
15312;SDS011;7757;52.626;4.746;2023-02-12T01:09:57;5.38;;;1.58;;
15312;SDS011;7757;52.626;4.746;2023-02-12T01:12:43;6.82;;;1.60;;
15312;SDS011;7757;52.626;4.746;2023-02-12T01:15:31;4.70;;;1.50;;
15312;SDS011;7757;52.626;4.746;2023-02-12T01:18:18;6.18;;;1.60;;
15312;SDS011;7757;52.626;4.746;2023-02-12T01:21:07;6.85;;;1.58;;
15312;SDS011;7757;52.626;4.746;2023-02-12T01:23:55;5.50;;;1.60;;
15312;SDS011;7757;52.626;4.746;2023-02-12T01:26:41;4.57;;;1.45;;
15312;SDS011;7757;52.626;4.746;2023-02-12T01:29:26;4.60;;;1.50;;
15312;SDS011;7757;52.626;4.746;2023-02-12T01:32:13;4.85;;;1.40;;
15312;SDS011;7757;52.626;4.746;2023-02-12T01:34:59;5.03;;;1.42;;
15312;SDS011;7757;52.626;4.746;2023-02-12T01:37:44;6.10;;;1.40;;
15312;SDS011;7757;52.626;4.746;2023-02-12T01:40:30;5.93;;;1.50;;
15312;SDS011;7757;52.626;4.746;2023-02-12T01:43:16;5.25;;;1.60;;
15312;SDS011;7757;52.626;4.746;2023-02-12T01:46:02;6.53;;;1.67;;
15312;SDS011;7757;52.626;4.746;2023-02-12T01:48:53;5.30;;;1.48;;
15312;SDS011;7757;52.626;4.746;2023-02-12T01:51:39;6.25;;;1.67;;
15312;SDS011;7757;52.626;4.746;2023-02-12T01:54:26;4.18;;;1.38;;
15312;SDS011;7757;52.626;4.746;2023-02-12T01:57:13;5.75;;;1.48;;
15312;SDS011;7757;52.626;4.746;2023-02-12T02:00:00;5.25;;;1.60;;
15312;SDS011;7757;52.626;4.746;2023-02-12T02:02:50;4.30;;;1.40;;
15312;SDS011;7757;52.626;4.746;2023-02-12T02:05:45;5.30;;;1.60;;
15312;SDS011;7757;52.626;4.746;2023-02-12T02:08:33;4.90;;;1.50;;
15312;SDS011;7757;52.626;4.746;2023-02-12T02:11:21;5.82;;;1.42;;
15312;SDS011;7757;52.626;4.746;2023-02-12T02:14:24;6.95;;;1.55;;
15312;SDS011;7757;52.626;4.746;2023-02-12T02:17:23;5.70;;;1.50;;
15312;SDS011;7757;52.626;4.746;2023-02-12T02:27:30;5.68;;;1.50;;
15312;SDS011;7757;52.626;4.746;2023-02-12T02:33:38;3.97;;;1.13;;
15312;SDS011;7757;52.626;4.746;2023-02-12T02:36:39;5.80;;;1.58;;
15312;SDS011;7757;52.626;4.746;2023-02-12T02:39:32;5.68;;;1.52;;
15312;SDS011;7757;52.626;4.746;2023-02-12T02:42:22;6.75;;;1.48;;
15312;SDS011;7757;52.626;4.746;2023-02-12T02:45:14;5.63;;;1.48;;
15312;SDS011;7757;52.626;4.746;2023-02-12T02:48:06;6.93;;;1.60;;
15312;SDS011;7757;52.626;4.746;2023-02-12T02:51:07;3.67;;;1.33;;
15312;SDS011;7757;52.626;4.746;2023-02-12T02:54:00;6.05;;;1.50;;
15312;SDS011;7757;52.626;4.746;2023-02-12T02:56:53;6.03;;;1.65;;
15312;SDS011;7757;52.626;4.746;2023-02-12T02:59:45;5.50;;;1.42;;
15312;SDS011;7757;52.626;4.746;2023-02-12T03:02:37;7.38;;;1.50;;
15312;SDS011;7757;52.626;4.746;2023-02-12T03:05:30;5.60;;;1.60;;
15312;SDS011;7757;52.626;4.746;2023-02-12T03:08:21;6.85;;;1.65;;
15312;SDS011;7757;52.626;4.746;2023-02-12T03:11:18;7.72;;;1.77;;
15312;SDS011;7757;52.626;4.746;2023-02-12T03:14:09;4.68;;;1.40;;
15312;SDS011;7757;52.626;4.746;2023-02-12T03:17:01;5.65;;;1.70;;
15312;SDS011;7757;52.626;4.746;2023-02-12T03:19:52;5.15;;;1.50;;
15312;SDS011;7757;52.626;4.746;2023-02-12T03:22:46;4.50;;;1.38;;
15312;SDS011;7757;52.626;4.746;2023-02-12T03:25:37;5.18;;;1.40;;
15312;SDS011;7757;52.626;4.746;2023-02-12T03:28:32;5.70;;;1.58;;
15312;SDS011;7757;52.626;4.746;2023-02-12T03:31:22;6.32;;;1.52;;
15312;SDS011;7757;52.626;4.746;2023-02-12T03:34:15;6.57;;;1.50;;
15312;SDS011;7757;52.626;4.746;2023-02-12T03:37:11;7.43;;;1.70;;
15312;SDS011;7757;52.626;4.746;2023-02-12T03:40:06;6.43;;;1.80;;
15312;SDS011;7757;52.626;4.746;2023-02-12T03:42:58;7.45;;;1.60;;
15312;SDS011;7757;52.626;4.746;2023-02-12T03:45:50;7.25;;;1.60;;
15312;SDS011;7757;52.626;4.746;2023-02-12T03:48:42;3.30;;;1.27;;
15312;SDS011;7757;52.626;4.746;2023-02-12T03:51:34;5.88;;;1.75;;
15312;SDS011;7757;52.626;4.746;2023-02-12T03:54:23;5.28;;;1.50;;
15312;SDS011;7757;52.626;4.746;2023-02-12T03:57:11;5.55;;;1.63;;
15312;SDS011;7757;52.626;4.746;2023-02-12T04:00:03;5.50;;;1.60;;
15312;SDS011;7757;52.626;4.746;2023-02-12T04:02:51;7.35;;;1.90;;
15312;SDS011;7757;52.626;4.746;2023-02-12T04:05:38;7.45;;;1.80;;
15312;SDS011;7757;52.626;4.746;2023-02-12T04:08:24;7.13;;;1.60;;
15312;SDS011;7757;52.626;4.746;2023-02-12T04:11:12;5.50;;;1.50;;
15312;SDS011;7757;52.626;4.746;2023-02-12T04:14:12;7.20;;;1.60;;
15312;SDS011;7757;52.626;4.746;2023-02-12T04:17:13;7.43;;;1.70;;
15312;SDS011;7757;52.626;4.746;2023-02-12T04:20:10;6.72;;;1.90;;
15312;SDS011;7757;52.626;4.746;2023-02-12T04:23:08;9.50;;;2.00;;
15312;SDS011;7757;52.626;4.746;2023-02-12T04:26:01;7.40;;;1.65;;
15312;SDS011;7757;52.626;4.746;2023-02-12T04:29:01;7.25;;;1.60;;
15312;SDS011;7757;52.626;4.746;2023-02-12T04:32:00;6.45;;;1.50;;
15312;SDS011;7757;52.626;4.746;2023-02-12T04:34:51;5.13;;;1.40;;
15312;SDS011;7757;52.626;4.746;2023-02-12T04:37:45;6.68;;;1.60;;
15312;SDS011;7757;52.626;4.746;2023-02-12T04:40:35;7.50;;;1.60;;
15312;SDS011;7757;52.626;4.746;2023-02-12T04:43:27;6.13;;;1.60;;
15312;SDS011;7757;52.626;4.746;2023-02-12T04:46:13;6.38;;;1.80;;
15312;SDS011;7757;52.626;4.746;2023-02-12T04:49:02;5.43;;;1.50;;
15312;SDS011;7757;52.626;4.746;2023-02-12T04:51:48;5.85;;;1.70;;
15312;SDS011;7757;52.626;4.746;2023-02-12T04:54:35;6.97;;;1.58;;
15312;SDS011;7757;52.626;4.746;2023-02-12T04:57:21;7.45;;;1.65;;
15312;SDS011;7757;52.626;4.746;2023-02-12T05:00:08;7.45;;;1.60;;
15312;SDS011;7757;52.626;4.746;2023-02-12T05:02:57;6.43;;;1.50;;
15312;SDS011;7757;52.626;4.746;2023-02-12T05:05:44;6.43;;;1.63;;
15312;SDS011;7757;52.626;4.746;2023-02-12T05:08:29;6.15;;;1.60;;
15312;SDS011;7757;52.626;4.746;2023-02-12T05:11:15;7.00;;;1.60;;
15312;SDS011;7757;52.626;4.746;2023-02-12T05:14:04;5.55;;;1.58;;
15312;SDS011;7757;52.626;4.746;2023-02-12T05:16:49;4.68;;;1.40;;
15312;SDS011;7757;52.626;4.746;2023-02-12T05:19:37;6.63;;;1.60;;
15312;SDS011;7757;52.626;4.746;2023-02-12T05:22:29;6.60;;;1.60;;
15312;SDS011;7757;52.626;4.746;2023-02-12T05:25:16;5.80;;;1.60;;
15312;SDS011;7757;52.626;4.746;2023-02-12T05:28:02;6.05;;;1.50;;
15312;SDS011;7757;52.626;4.746;2023-02-12T05:30:47;6.60;;;1.70;;
15312;SDS011;7757;52.626;4.746;2023-02-12T05:33:33;6.50;;;1.52;;
15312;SDS011;7757;52.626;4.746;2023-02-12T05:36:19;5.32;;;1.50;;
15312;SDS011;7757;52.626;4.746;2023-02-12T05:39:09;6.55;;;1.70;;
15312;SDS011;7757;52.626;4.746;2023-02-12T05:41:56;6.63;;;1.58;;
15312;SDS011;7757;52.626;4.746;2023-02-12T05:44:42;5.97;;;1.70;;
15312;SDS011;7757;52.626;4.746;2023-02-12T05:47:28;7.68;;;1.80;;
15312;SDS011;7757;52.626;4.746;2023-02-12T05:50:14;4.43;;;1.60;;
15312;SDS011;7757;52.626;4.746;2023-02-12T05:52:59;5.28;;;1.40;;
15312;SDS011;7757;52.626;4.746;2023-02-12T05:55:46;7.88;;;1.60;;
15312;SDS011;7757;52.626;4.746;2023-02-12T05:58:31;5.45;;;1.50;;
15312;SDS011;7757;52.626;4.746;2023-02-12T06:01:18;4.07;;;1.35;;
15312;SDS011;7757;52.626;4.746;2023-02-12T06:04:07;6.53;;;1.70;;
15312;SDS011;7757;52.626;4.746;2023-02-12T06:06:58;5.72;;;1.77;;
15312;SDS011;7757;52.626;4.746;2023-02-12T06:09:44;4.70;;;1.40;;
15312;SDS011;7757;52.626;4.746;2023-02-12T06:12:32;5.03;;;1.55;;
15312;SDS011;7757;52.626;4.746;2023-02-12T06:15:18;6.95;;;1.40;;
15312;SDS011;7757;52.626;4.746;2023-02-12T06:18:03;5.28;;;1.60;;
15312;SDS011;7757;52.626;4.746;2023-02-12T06:20:51;5.47;;;1.45;;
15312;SDS011;7757;52.626;4.746;2023-02-12T06:23:38;6.35;;;1.55;;
15312;SDS011;7757;52.626;4.746;2023-02-12T06:26:24;5.53;;;1.60;;
15312;SDS011;7757;52.626;4.746;2023-02-12T06:29:14;5.72;;;1.67;;
15312;SDS011;7757;52.626;4.746;2023-02-12T06:32:01;5.68;;;1.60;;
15312;SDS011;7757;52.626;4.746;2023-02-12T06:34:47;5.85;;;1.60;;
15312;SDS011;7757;52.626;4.746;2023-02-12T06:37:36;7.22;;;1.70;;
15312;SDS011;7757;52.626;4.746;2023-02-12T06:40:26;5.43;;;1.63;;
15312;SDS011;7757;52.626;4.746;2023-02-12T06:43:13;4.25;;;1.38;;
15312;SDS011;7757;52.626;4.746;2023-02-12T06:46:00;4.30;;;1.20;;
15312;SDS011;7757;52.626;4.746;2023-02-12T06:48:46;6.72;;;1.60;;
15312;SDS011;7757;52.626;4.746;2023-02-12T06:51:38;4.00;;;1.35;;
15312;SDS011;7757;52.626;4.746;2023-02-12T06:54:25;7.00;;;1.50;;
15312;SDS011;7757;52.626;4.746;2023-02-12T06:57:12;5.22;;;1.52;;
15312;SDS011;7757;52.626;4.746;2023-02-12T06:59:58;5.93;;;1.50;;
15312;SDS011;7757;52.626;4.746;2023-02-12T07:02:45;5.13;;;1.60;;
15312;SDS011;7757;52.626;4.746;2023-02-12T07:05:38;6.60;;;1.60;;
15312;SDS011;7757;52.626;4.746;2023-02-12T07:08:23;5.05;;;1.50;;
15312;SDS011;7757;52.626;4.746;2023-02-12T07:11:08;6.38;;;1.42;;
15312;SDS011;7757;52.626;4.746;2023-02-12T07:13:54;6.78;;;1.50;;
15312;SDS011;7757;52.626;4.746;2023-02-12T07:16:41;5.45;;;1.48;;
15312;SDS011;7757;52.626;4.746;2023-02-12T07:19:29;5.78;;;1.80;;
15312;SDS011;7757;52.626;4.746;2023-02-12T07:22:15;4.28;;;1.40;;
15312;SDS011;7757;52.626;4.746;2023-02-12T07:25:04;4.97;;;1.40;;
15312;SDS011;7757;52.626;4.746;2023-02-12T07:27:56;6.43;;;1.50;;
15312;SDS011;7757;52.626;4.746;2023-02-12T07:30:44;3.67;;;1.30;;
15312;SDS011;7757;52.626;4.746;2023-02-12T07:33:31;6.57;;;1.60;;
15312;SDS011;7757;52.626;4.746;2023-02-12T07:36:18;5.50;;;1.30;;
15312;SDS011;7757;52.626;4.746;2023-02-12T07:39:06;4.57;;;1.35;;
15312;SDS011;7757;52.626;4.746;2023-02-12T07:41:53;4.22;;;1.30;;
15312;SDS011;7757;52.626;4.746;2023-02-12T07:44:45;5.22;;;1.65;;
15312;SDS011;7757;52.626;4.746;2023-02-12T07:47:30;6.80;;;1.33;;
15312;SDS011;7757;52.626;4.746;2023-02-12T07:50:16;5.82;;;1.45;;
15312;SDS011;7757;52.626;4.746;2023-02-12T07:53:06;3.25;;;1.17;;
15312;SDS011;7757;52.626;4.746;2023-02-12T07:55:52;3.78;;;1.25;;
15312;SDS011;7757;52.626;4.746;2023-02-12T07:58:38;5.47;;;1.40;;
15312;SDS011;7757;52.626;4.746;2023-02-12T08:01:25;5.05;;;1.30;;
15312;SDS011;7757;52.626;4.746;2023-02-12T08:04:13;5.13;;;1.30;;
15312;SDS011;7757;52.626;4.746;2023-02-12T08:07:00;3.60;;;1.10;;
15312;SDS011;7757;52.626;4.746;2023-02-12T08:09:48;4.28;;;1.17;;
15312;SDS011;7757;52.626;4.746;2023-02-12T08:12:36;4.90;;;1.20;;
15312;SDS011;7757;52.626;4.746;2023-02-12T08:15:22;4.32;;;1.25;;
15312;SDS011;7757;52.626;4.746;2023-02-12T08:18:07;5.50;;;1.48;;
15312;SDS011;7757;52.626;4.746;2023-02-12T08:20:53;4.00;;;1.35;;
15312;SDS011;7757;52.626;4.746;2023-02-12T08:23:39;5.57;;;1.30;;
15312;SDS011;7757;52.626;4.746;2023-02-12T08:26:29;5.57;;;1.50;;
15312;SDS011;7757;52.626;4.746;2023-02-12T08:29:20;5.68;;;1.40;;
15312;SDS011;7757;52.626;4.746;2023-02-12T08:32:06;7.00;;;1.48;;
15312;SDS011;7757;52.626;4.746;2023-02-12T08:34:56;4.70;;;1.25;;
15312;SDS011;7757;52.626;4.746;2023-02-12T08:37:43;4.45;;;1.20;;
15312;SDS011;7757;52.626;4.746;2023-02-12T08:40:29;3.15;;;1.10;;
15312;SDS011;7757;52.626;4.746;2023-02-12T08:43:19;5.63;;;1.30;;
15312;SDS011;7757;52.626;4.746;2023-02-12T08:46:04;5.20;;;1.27;;
15312;SDS011;7757;52.626;4.746;2023-02-12T08:48:58;4.10;;;1.30;;
15312;SDS011;7757;52.626;4.746;2023-02-12T08:51:46;3.90;;;1.13;;
15312;SDS011;7757;52.626;4.746;2023-02-12T08:54:34;4.47;;;1.10;;
15312;SDS011;7757;52.626;4.746;2023-02-12T08:57:21;5.25;;;1.40;;
15312;SDS011;7757;52.626;4.746;2023-02-12T09:00:11;4.55;;;1.30;;
15312;SDS011;7757;52.626;4.746;2023-02-12T09:02:58;4.30;;;1.15;;
15312;SDS011;7757;52.626;4.746;2023-02-12T09:05:47;5.10;;;1.45;;
15312;SDS011;7757;52.626;4.746;2023-02-12T09:08:33;4.32;;;1.35;;
15312;SDS011;7757;52.626;4.746;2023-02-12T09:11:21;4.93;;;1.20;;
15312;SDS011;7757;52.626;4.746;2023-02-12T09:14:15;4.93;;;1.27;;
15312;SDS011;7757;52.626;4.746;2023-02-12T09:17:08;3.80;;;1.25;;
15312;SDS011;7757;52.626;4.746;2023-02-12T09:19:53;6.45;;;1.60;;
15312;SDS011;7757;52.626;4.746;2023-02-12T09:22:44;2.75;;;1.02;;
15312;SDS011;7757;52.626;4.746;2023-02-12T09:25:30;2.25;;;1.02;;
15312;SDS011;7757;52.626;4.746;2023-02-12T09:28:17;3.38;;;1.10;;
15312;SDS011;7757;52.626;4.746;2023-02-12T09:31:06;4.32;;;1.30;;
15312;SDS011;7757;52.626;4.746;2023-02-12T09:33:57;4.47;;;1.30;;
15312;SDS011;7757;52.626;4.746;2023-02-12T09:36:44;4.75;;;1.40;;
15312;SDS011;7757;52.626;4.746;2023-02-12T09:39:32;4.55;;;1.30;;
15312;SDS011;7757;52.626;4.746;2023-02-12T09:45:39;5.05;;;1.35;;
15312;SDS011;7757;52.626;4.746;2023-02-12T09:48:41;6.45;;;1.48;;
15312;SDS011;7757;52.626;4.746;2023-02-12T09:51:37;6.88;;;1.40;;
15312;SDS011;7757;52.626;4.746;2023-02-12T09:54:28;6.90;;;1.20;;
15312;SDS011;7757;52.626;4.746;2023-02-12T09:57:22;4.47;;;1.20;;
15312;SDS011;7757;52.626;4.746;2023-02-12T10:00:17;5.25;;;1.52;;
15312;SDS011;7757;52.626;4.746;2023-02-12T10:03:11;5.53;;;1.40;;
15312;SDS011;7757;52.626;4.746;2023-02-12T10:06:00;6.03;;;1.30;;
15312;SDS011;7757;52.626;4.746;2023-02-12T10:09:00;4.75;;;1.20;;
15312;SDS011;7757;52.626;4.746;2023-02-12T10:11:53;7.88;;;1.55;;
15312;SDS011;7757;52.626;4.746;2023-02-12T10:14:55;5.80;;;1.58;;
15312;SDS011;7757;52.626;4.746;2023-02-12T10:17:50;4.10;;;1.20;;
15312;SDS011;7757;52.626;4.746;2023-02-12T10:20:49;4.95;;;1.15;;
15312;SDS011;7757;52.626;4.746;2023-02-12T10:23:46;5.30;;;1.23;;
15312;SDS011;7757;52.626;4.746;2023-02-12T10:27:09;6.75;;;1.42;;
15312;SDS011;7757;52.626;4.746;2023-02-12T10:29:59;8.40;;;2.13;;
15312;SDS011;7757;52.626;4.746;2023-02-12T10:32:54;10.38;;;1.95;;
15312;SDS011;7757;52.626;4.746;2023-02-12T10:35:47;8.85;;;1.73;;
15312;SDS011;7757;52.626;4.746;2023-02-12T10:38:48;20.02;;;2.28;;
15312;SDS011;7757;52.626;4.746;2023-02-12T10:41:39;13.30;;;2.30;;
15312;SDS011;7757;52.626;4.746;2023-02-12T10:44:29;15.95;;;2.08;;
15312;SDS011;7757;52.626;4.746;2023-02-12T10:47:16;14.15;;;2.10;;
15312;SDS011;7757;52.626;4.746;2023-02-12T10:50:12;11.80;;;2.13;;
15312;SDS011;7757;52.626;4.746;2023-02-12T10:53:05;13.93;;;2.20;;
15312;SDS011;7757;52.626;4.746;2023-02-12T10:56:05;11.90;;;2.13;;
15312;SDS011;7757;52.626;4.746;2023-02-12T10:59:03;11.82;;;1.90;;
15312;SDS011;7757;52.626;4.746;2023-02-12T11:01:52;14.02;;;2.40;;
15312;SDS011;7757;52.626;4.746;2023-02-12T11:04:37;10.25;;;1.98;;
15312;SDS011;7757;52.626;4.746;2023-02-12T11:07:25;11.50;;;1.88;;
15312;SDS011;7757;52.626;4.746;2023-02-12T11:10:20;12.90;;;2.13;;
15312;SDS011;7757;52.626;4.746;2023-02-12T11:13:20;13.95;;;1.98;;
15312;SDS011;7757;52.626;4.746;2023-02-12T11:16:14;10.35;;;1.88;;
15312;SDS011;7757;52.626;4.746;2023-02-12T11:19:21;10.75;;;2.05;;
15312;SDS011;7757;52.626;4.746;2023-02-12T11:22:11;10.35;;;2.13;;
15312;SDS011;7757;52.626;4.746;2023-02-12T11:25:07;8.25;;;1.88;;
15312;SDS011;7757;52.626;4.746;2023-02-12T11:28:02;15.40;;;2.20;;
15312;SDS011;7757;52.626;4.746;2023-02-12T11:30:59;8.90;;;2.00;;
15312;SDS011;7757;52.626;4.746;2023-02-12T11:33:47;9.15;;;1.90;;
15312;SDS011;7757;52.626;4.746;2023-02-12T11:36:53;11.55;;;2.25;;
15312;SDS011;7757;52.626;4.746;2023-02-12T11:39:40;8.32;;;1.85;;
15312;SDS011;7757;52.626;4.746;2023-02-12T11:42:32;8.85;;;1.90;;
15312;SDS011;7757;52.626;4.746;2023-02-12T11:45:22;7.35;;;1.85;;
15312;SDS011;7757;52.626;4.746;2023-02-12T11:48:15;10.07;;;2.00;;
15312;SDS011;7757;52.626;4.746;2023-02-12T11:51:06;9.02;;;2.03;;
15312;SDS011;7757;52.626;4.746;2023-02-12T11:53:53;7.88;;;1.70;;
15312;SDS011;7757;52.626;4.746;2023-02-12T11:56:43;9.75;;;2.10;;
15312;SDS011;7757;52.626;4.746;2023-02-12T11:59:35;8.32;;;1.65;;
15312;SDS011;7757;52.626;4.746;2023-02-12T12:02:23;10.40;;;1.75;;
15312;SDS011;7757;52.626;4.746;2023-02-12T12:05:15;9.32;;;1.80;;
15312;SDS011;7757;52.626;4.746;2023-02-12T12:08:06;9.23;;;1.80;;
15312;SDS011;7757;52.626;4.746;2023-02-12T12:11:02;8.10;;;1.90;;
15312;SDS011;7757;52.626;4.746;2023-02-12T12:13:56;7.63;;;1.77;;
15312;SDS011;7757;52.626;4.746;2023-02-12T12:16:47;11.15;;;2.10;;
15312;SDS011;7757;52.626;4.746;2023-02-12T12:19:57;6.07;;;1.60;;
15312;SDS011;7757;52.626;4.746;2023-02-12T12:22:53;7.22;;;1.60;;
15312;SDS011;7757;52.626;4.746;2023-02-12T12:25:51;6.90;;;1.77;;
15312;SDS011;7757;52.626;4.746;2023-02-12T12:28:43;6.45;;;1.50;;
15312;SDS011;7757;52.626;4.746;2023-02-12T12:31:36;8.05;;;1.60;;
15312;SDS011;7757;52.626;4.746;2023-02-12T12:34:26;7.47;;;1.70;;
15312;SDS011;7757;52.626;4.746;2023-02-12T12:37:19;8.23;;;1.75;;
15312;SDS011;7757;52.626;4.746;2023-02-12T12:40:19;7.82;;;1.65;;
15312;SDS011;7757;52.626;4.746;2023-02-12T12:43:17;7.13;;;1.70;;
15312;SDS011;7757;52.626;4.746;2023-02-12T12:49:37;10.20;;;1.90;;
15312;SDS011;7757;52.626;4.746;2023-02-12T12:52:42;19.60;;;4.38;;
15312;SDS011;7757;52.626;4.746;2023-02-12T12:55:52;14.88;;;3.78;;
15312;SDS011;7757;52.626;4.746;2023-02-12T12:58:56;16.95;;;4.00;;
15312;SDS011;7757;52.626;4.746;2023-02-12T13:01:56;17.80;;;3.95;;
15312;SDS011;7757;52.626;4.746;2023-02-12T13:05:12;13.00;;;3.20;;
15312;SDS011;7757;52.626;4.746;2023-02-12T13:08:11;13.68;;;3.63;;
15312;SDS011;7757;52.626;4.746;2023-02-12T13:11:10;16.40;;;3.70;;
15312;SDS011;7757;52.626;4.746;2023-02-12T13:14:12;20.05;;;3.92;;
15312;SDS011;7757;52.626;4.746;2023-02-12T13:17:12;22.00;;;3.80;;
15312;SDS011;7757;52.626;4.746;2023-02-12T13:20:09;17.02;;;3.55;;
15312;SDS011;7757;52.626;4.746;2023-02-12T13:23:01;10.40;;;3.40;;
15312;SDS011;7757;52.626;4.746;2023-02-12T13:25:56;13.93;;;3.53;;
15312;SDS011;7757;52.626;4.746;2023-02-12T13:28:52;14.13;;;3.28;;
15312;SDS011;7757;52.626;4.746;2023-02-12T13:31:48;14.02;;;3.55;;
15312;SDS011;7757;52.626;4.746;2023-02-12T13:34:38;11.77;;;3.22;;
15312;SDS011;7757;52.626;4.746;2023-02-12T13:37:30;13.70;;;3.50;;
15312;SDS011;7757;52.626;4.746;2023-02-12T13:40:22;13.38;;;3.50;;
15312;SDS011;7757;52.626;4.746;2023-02-12T13:43:22;13.60;;;3.65;;
15312;SDS011;7757;52.626;4.746;2023-02-12T13:46:22;13.05;;;3.22;;
15312;SDS011;7757;52.626;4.746;2023-02-12T13:49:18;15.82;;;3.85;;
15312;SDS011;7757;52.626;4.746;2023-02-12T13:52:16;10.43;;;3.00;;
15312;SDS011;7757;52.626;4.746;2023-02-12T13:55:14;11.90;;;3.47;;
15312;SDS011;7757;52.626;4.746;2023-02-12T14:01:35;10.57;;;2.90;;
15312;SDS011;7757;52.626;4.746;2023-02-12T14:04:27;12.23;;;3.17;;
15312;SDS011;7757;52.626;4.746;2023-02-12T14:07:15;12.95;;;2.97;;
15312;SDS011;7757;52.626;4.746;2023-02-12T14:10:02;9.90;;;3.05;;
15312;SDS011;7757;52.626;4.746;2023-02-12T14:12:50;10.48;;;3.08;;
15312;SDS011;7757;52.626;4.746;2023-02-12T14:15:38;17.65;;;3.10;;
15312;SDS011;7757;52.626;4.746;2023-02-12T14:18:28;12.07;;;2.78;;
15312;SDS011;7757;52.626;4.746;2023-02-12T14:27:40;11.65;;;2.95;;
15312;SDS011;7757;52.626;4.746;2023-02-12T14:30:30;11.52;;;3.20;;
15312;SDS011;7757;52.626;4.746;2023-02-12T14:33:19;11.00;;;2.78;;
15312;SDS011;7757;52.626;4.746;2023-02-12T14:36:12;12.13;;;3.00;;
15312;SDS011;7757;52.626;4.746;2023-02-12T14:45:30;10.30;;;3.00;;
15312;SDS011;7757;52.626;4.746;2023-02-12T14:48:38;9.57;;;2.78;;
15312;SDS011;7757;52.626;4.746;2023-02-12T14:51:34;9.50;;;2.60;;
15312;SDS011;7757;52.626;4.746;2023-02-12T14:54:26;13.07;;;3.03;;
15312;SDS011;7757;52.626;4.746;2023-02-12T14:57:24;9.48;;;2.65;;
15312;SDS011;7757;52.626;4.746;2023-02-12T15:00:18;11.38;;;2.90;;
15312;SDS011;7757;52.626;4.746;2023-02-12T15:03:15;12.50;;;3.00;;
15312;SDS011;7757;52.626;4.746;2023-02-12T15:06:06;12.02;;;3.10;;
15312;SDS011;7757;52.626;4.746;2023-02-12T15:08:59;10.70;;;2.90;;
15312;SDS011;7757;52.626;4.746;2023-02-12T15:11:57;17.45;;;4.50;;
15312;SDS011;7757;52.626;4.746;2023-02-12T15:14:48;18.00;;;5.00;;
15312;SDS011;7757;52.626;4.746;2023-02-12T15:17:46;16.63;;;4.25;;
15312;SDS011;7757;52.626;4.746;2023-02-12T15:20:42;18.20;;;4.53;;
15312;SDS011;7757;52.626;4.746;2023-02-12T15:23:32;21.10;;;4.30;;
15312;SDS011;7757;52.626;4.746;2023-02-12T15:26:21;17.25;;;4.63;;
15312;SDS011;7757;52.626;4.746;2023-02-12T15:29:19;18.15;;;4.43;;
15312;SDS011;7757;52.626;4.746;2023-02-12T15:32:12;18.70;;;5.03;;
15312;SDS011;7757;52.626;4.746;2023-02-12T15:35:18;18.58;;;4.95;;
15312;SDS011;7757;52.626;4.746;2023-02-12T15:38:14;16.33;;;4.13;;
15312;SDS011;7757;52.626;4.746;2023-02-12T15:41:05;17.08;;;4.38;;
15312;SDS011;7757;52.626;4.746;2023-02-12T15:43:52;17.80;;;4.75;;
15312;SDS011;7757;52.626;4.746;2023-02-12T15:46:40;14.45;;;4.60;;
15312;SDS011;7757;52.626;4.746;2023-02-12T15:49:38;14.73;;;4.35;;
15312;SDS011;7757;52.626;4.746;2023-02-12T15:52:26;16.63;;;4.65;;
15312;SDS011;7757;52.626;4.746;2023-02-12T15:55:18;15.90;;;4.60;;
15312;SDS011;7757;52.626;4.746;2023-02-12T15:58:14;18.52;;;4.40;;
15312;SDS011;7757;52.626;4.746;2023-02-12T16:01:05;18.48;;;4.45;;
15312;SDS011;7757;52.626;4.746;2023-02-12T16:03:54;18.08;;;4.65;;
15312;SDS011;7757;52.626;4.746;2023-02-12T16:06:43;15.32;;;4.47;;
15312;SDS011;7757;52.626;4.746;2023-02-12T16:09:29;15.77;;;4.57;;
15312;SDS011;7757;52.626;4.746;2023-02-12T16:12:20;15.18;;;4.35;;
15312;SDS011;7757;52.626;4.746;2023-02-12T16:15:21;13.65;;;4.10;;
15312;SDS011;7757;52.626;4.746;2023-02-12T16:18:20;19.83;;;4.68;;
15312;SDS011;7757;52.626;4.746;2023-02-12T16:21:11;15.20;;;3.85;;
15312;SDS011;7757;52.626;4.746;2023-02-12T16:24:00;16.20;;;4.32;;
15312;SDS011;7757;52.626;4.746;2023-02-12T16:26:45;14.85;;;4.32;;
15312;SDS011;7757;52.626;4.746;2023-02-12T16:29:31;15.10;;;4.20;;
15312;SDS011;7757;52.626;4.746;2023-02-12T16:32:27;16.27;;;4.05;;
15312;SDS011;7757;52.626;4.746;2023-02-12T16:35:27;12.45;;;4.30;;
15312;SDS011;7757;52.626;4.746;2023-02-12T16:38:39;14.35;;;4.32;;
15312;SDS011;7757;52.626;4.746;2023-02-12T16:41:28;13.75;;;4.60;;
15312;SDS011;7757;52.626;4.746;2023-02-12T16:44:20;13.05;;;4.68;;
15312;SDS011;7757;52.626;4.746;2023-02-12T16:47:18;15.15;;;4.30;;
15312;SDS011;7757;52.626;4.746;2023-02-12T16:50:13;13.02;;;4.40;;
15312;SDS011;7757;52.626;4.746;2023-02-12T16:53:01;15.80;;;4.60;;
15312;SDS011;7757;52.626;4.746;2023-02-12T16:55:52;13.40;;;4.35;;
15312;SDS011;7757;52.626;4.746;2023-02-12T16:58:37;13.68;;;3.92;;
15312;SDS011;7757;52.626;4.746;2023-02-12T17:01:25;16.45;;;4.07;;
15312;SDS011;7757;52.626;4.746;2023-02-12T17:04:13;13.68;;;4.57;;
15312;SDS011;7757;52.626;4.746;2023-02-12T17:07:01;13.55;;;4.20;;
15312;SDS011;7757;52.626;4.746;2023-02-12T17:09:46;13.77;;;4.18;;
15312;SDS011;7757;52.626;4.746;2023-02-12T17:12:34;12.57;;;4.18;;
15312;SDS011;7757;52.626;4.746;2023-02-12T17:15:28;12.70;;;3.97;;
15312;SDS011;7757;52.626;4.746;2023-02-12T17:18:25;12.63;;;4.28;;
15312;SDS011;7757;52.626;4.746;2023-02-12T17:21:13;13.60;;;4.07;;
15312;SDS011;7757;52.626;4.746;2023-02-12T17:24:06;12.70;;;3.92;;
15312;SDS011;7757;52.626;4.746;2023-02-12T17:26:58;12.77;;;4.25;;
15312;SDS011;7757;52.626;4.746;2023-02-12T17:29:47;13.73;;;4.28;;
15312;SDS011;7757;52.626;4.746;2023-02-12T17:32:33;14.40;;;4.22;;
15312;SDS011;7757;52.626;4.746;2023-02-12T17:35:18;13.30;;;3.97;;
15312;SDS011;7757;52.626;4.746;2023-02-12T17:38:04;13.35;;;4.05;;
15312;SDS011;7757;52.626;4.746;2023-02-12T17:40:50;12.85;;;3.70;;
15312;SDS011;7757;52.626;4.746;2023-02-12T17:43:37;13.48;;;4.30;;
15312;SDS011;7757;52.626;4.746;2023-02-12T17:46:26;13.98;;;4.20;;
15312;SDS011;7757;52.626;4.746;2023-02-12T17:49:15;12.65;;;4.13;;
15312;SDS011;7757;52.626;4.746;2023-02-12T17:52:00;13.50;;;4.45;;
15312;SDS011;7757;52.626;4.746;2023-02-12T17:54:46;12.73;;;4.28;;